sensor_id;sensor_type;location;lat;lon;timestamp;pressure;altitude;pressure_sealevel;temperature;humidity
45888;BME280;31595;51.418;7.572;2023-04-19T00:02:23;101320.06;;;13.63;58.22
45888;BME280;31595;51.418;7.572;2023-04-19T00:04:51;101315.19;;;13.55;58.89
45888;BME280;31595;51.418;7.572;2023-04-19T00:07:20;101310.31;;;13.47;59.79
45888;BME280;31595;51.418;7.572;2023-04-19T00:09:49;101304.53;;;13.43;59.74
45888;BME280;31595;51.418;7.572;2023-04-19T00:12:16;101310.56;;;13.36;59.83
45888;BME280;31595;51.418;7.572;2023-04-19T00:14:43;101304.44;;;13.34;60.65
45888;BME280;31595;51.418;7.572;2023-04-19T00:17:10;101310.16;;;13.29;60.95
45888;BME280;31595;51.418;7.572;2023-04-19T00:19:38;101310.72;;;13.26;61.46
45888;BME280;31595;51.418;7.572;2023-04-19T00:22:05;101311.75;;;13.16;62.50
45888;BME280;31595;51.418;7.572;2023-04-19T00:24:32;101306.50;;;13.15;61.47
45888;BME280;31595;51.418;7.572;2023-04-19T00:27:01;101302.56;;;13.02;62.97
45888;BME280;31595;51.418;7.572;2023-04-19T00:29:28;101307.44;;;12.96;62.54
45888;BME280;31595;51.418;7.572;2023-04-19T00:31:56;101296.53;;;12.95;63.25
45888;BME280;31595;51.418;7.572;2023-04-19T00:34:23;101301.91;;;12.91;63.14
45888;BME280;31595;51.418;7.572;2023-04-19T00:36:50;101298.00;;;12.92;63.60
45888;BME280;31595;51.418;7.572;2023-04-19T00:39:18;101300.16;;;12.95;63.91
45888;BME280;31595;51.418;7.572;2023-04-19T00:41:45;101296.97;;;12.88;64.09
45888;BME280;31595;51.418;7.572;2023-04-19T00:44:14;101304.59;;;12.83;64.01
45888;BME280;31595;51.418;7.572;2023-04-19T00:46:41;101296.13;;;12.88;64.19
45888;BME280;31595;51.418;7.572;2023-04-19T00:49:09;101294.69;;;12.90;63.45
45888;BME280;31595;51.418;7.572;2023-04-19T00:51:37;101293.53;;;12.91;63.72
45888;BME280;31595;51.418;7.572;2023-04-19T00:54:04;101292.94;;;12.94;63.78
45888;BME280;31595;51.418;7.572;2023-04-19T00:56:33;101289.59;;;12.92;63.66
45888;BME280;31595;51.418;7.572;2023-04-19T00:59:01;101288.56;;;12.88;63.96
45888;BME280;31595;51.418;7.572;2023-04-19T01:01:30;101301.09;;;12.91;63.89
45888;BME280;31595;51.418;7.572;2023-04-19T01:03:59;101288.56;;;12.88;64.33
45888;BME280;31595;51.418;7.572;2023-04-19T01:06:27;101298.22;;;12.96;63.87
45888;BME280;31595;51.418;7.572;2023-04-19T01:08:55;101299.97;;;13.06;63.42
45888;BME280;31595;51.418;7.572;2023-04-19T01:11:22;101296.25;;;13.10;63.48
45888;BME280;31595;51.418;7.572;2023-04-19T01:13:49;101287.94;;;13.19;62.61
45888;BME280;31595;51.418;7.572;2023-04-19T01:16:17;101287.63;;;13.20;63.13
45888;BME280;31595;51.418;7.572;2023-04-19T01:18:46;101282.75;;;13.26;62.76
45888;BME280;31595;51.418;7.572;2023-04-19T01:21:13;101275.94;;;13.32;62.49
45888;BME280;31595;51.418;7.572;2023-04-19T01:23:42;101278.75;;;13.32;62.64
45888;BME280;31595;51.418;7.572;2023-04-19T01:26:09;101279.13;;;13.39;63.08
45888;BME280;31595;51.418;7.572;2023-04-19T01:28:36;101276.03;;;13.41;63.16
45888;BME280;31595;51.418;7.572;2023-04-19T01:31:04;101283.47;;;13.46;61.94
45888;BME280;31595;51.418;7.572;2023-04-19T01:33:31;101281.19;;;13.48;61.88
45888;BME280;31595;51.418;7.572;2023-04-19T01:35:58;101279.03;;;13.45;62.72
45888;BME280;31595;51.418;7.572;2023-04-19T01:38:26;101285.16;;;13.47;61.93
45888;BME280;31595;51.418;7.572;2023-04-19T01:40:54;101276.09;;;13.50;62.29
45888;BME280;31595;51.418;7.572;2023-04-19T01:43:22;101277.47;;;13.52;61.76
45888;BME280;31595;51.418;7.572;2023-04-19T01:45:49;101278.59;;;13.51;61.63
45888;BME280;31595;51.418;7.572;2023-04-19T01:48:16;101282.94;;;13.57;61.21
45888;BME280;31595;51.418;7.572;2023-04-19T01:50:43;101274.84;;;13.56;61.99
45888;BME280;31595;51.418;7.572;2023-04-19T01:53:11;101272.75;;;13.62;61.79
45888;BME280;31595;51.418;7.572;2023-04-19T01:55:38;101268.50;;;13.64;62.41
45888;BME280;31595;51.418;7.572;2023-04-19T01:58:07;101277.72;;;13.65;62.07
45888;BME280;31595;51.418;7.572;2023-04-19T02:00:34;101289.13;;;13.68;61.46
45888;BME280;31595;51.418;7.572;2023-04-19T02:03:02;101276.78;;;13.69;61.93
45888;BME280;31595;51.418;7.572;2023-04-19T02:05:29;101277.94;;;13.68;61.47
45888;BME280;31595;51.418;7.572;2023-04-19T02:07:56;101273.16;;;13.69;61.82
45888;BME280;31595;51.418;7.572;2023-04-19T02:10:23;101277.09;;;13.68;62.00
45888;BME280;31595;51.418;7.572;2023-04-19T02:12:51;101270.84;;;13.71;61.79
45888;BME280;31595;51.418;7.572;2023-04-19T02:15:19;101273.34;;;13.72;61.33
45888;BME280;31595;51.418;7.572;2023-04-19T02:17:47;101272.53;;;13.72;61.28
45888;BME280;31595;51.418;7.572;2023-04-19T02:20:14;101279.69;;;13.64;61.39
45888;BME280;31595;51.418;7.572;2023-04-19T02:22:41;101280.72;;;13.68;60.30
45888;BME280;31595;51.418;7.572;2023-04-19T02:25:09;101282.41;;;13.69;61.25
45888;BME280;31595;51.418;7.572;2023-04-19T02:27:36;101272.84;;;13.70;60.28
45888;BME280;31595;51.418;7.572;2023-04-19T02:30:04;101275.34;;;13.72;60.02
45888;BME280;31595;51.418;7.572;2023-04-19T02:32:34;101278.94;;;13.72;59.32
45888;BME280;31595;51.418;7.572;2023-04-19T02:35:01;101267.53;;;13.69;60.01
45888;BME280;31595;51.418;7.572;2023-04-19T02:37:28;101270.03;;;13.70;59.53
45888;BME280;31595;51.418;7.572;2023-04-19T02:39:56;101274.00;;;13.69;58.84
45888;BME280;31595;51.418;7.572;2023-04-19T02:42:23;101266.41;;;13.70;59.30
45888;BME280;31595;51.418;7.572;2023-04-19T02:44:50;101269.84;;;13.67;58.08
45888;BME280;31595;51.418;7.572;2023-04-19T02:47:17;101270.47;;;13.64;59.07
45888;BME280;31595;51.418;7.572;2023-04-19T02:49:47;101266.84;;;13.63;57.75
45888;BME280;31595;51.418;7.572;2023-04-19T02:52:14;101265.69;;;13.64;57.46
45888;BME280;31595;51.418;7.572;2023-04-19T02:54:42;101266.00;;;13.63;58.06
45888;BME280;31595;51.418;7.572;2023-04-19T02:57:09;101259.38;;;13.58;58.01
45888;BME280;31595;51.418;7.572;2023-04-19T02:59:36;101270.91;;;13.57;57.55
45888;BME280;31595;51.418;7.572;2023-04-19T03:02:03;101263.13;;;13.54;56.83
45888;BME280;31595;51.418;7.572;2023-04-19T03:04:30;101260.34;;;13.54;57.10
45888;BME280;31595;51.418;7.572;2023-04-19T03:07:00;101269.25;;;13.56;56.18
45888;BME280;31595;51.418;7.572;2023-04-19T03:09:28;101266.56;;;13.51;55.63
45888;BME280;31595;51.418;7.572;2023-04-19T03:11:55;101262.75;;;13.47;55.76
45888;BME280;31595;51.418;7.572;2023-04-19T03:14:22;101259.66;;;13.48;55.66
45888;BME280;31595;51.418;7.572;2023-04-19T03:16:49;101260.56;;;13.44;55.05
45888;BME280;31595;51.418;7.572;2023-04-19T03:19:17;101260.38;;;13.40;55.73
45888;BME280;31595;51.418;7.572;2023-04-19T03:21:44;101252.81;;;13.40;55.13
45888;BME280;31595;51.418;7.572;2023-04-19T03:24:13;101259.53;;;13.39;54.35
45888;BME280;31595;51.418;7.572;2023-04-19T03:26:40;101251.13;;;13.39;55.19
45888;BME280;31595;51.418;7.572;2023-04-19T03:29:07;101250.63;;;13.37;54.66
45888;BME280;31595;51.418;7.572;2023-04-19T03:31:35;101249.00;;;13.36;53.84
45888;BME280;31595;51.418;7.572;2023-04-19T03:34:02;101246.69;;;13.38;54.66
45888;BME280;31595;51.418;7.572;2023-04-19T03:36:30;101251.66;;;13.42;54.21
45888;BME280;31595;51.418;7.572;2023-04-19T03:38:57;101244.53;;;13.35;54.36
45888;BME280;31595;51.418;7.572;2023-04-19T03:41:26;101248.47;;;13.34;53.43
45888;BME280;31595;51.418;7.572;2023-04-19T03:43:54;101246.31;;;13.31;53.76
45888;BME280;31595;51.418;7.572;2023-04-19T03:46:23;101249.94;;;13.32;54.33
45888;BME280;31595;51.418;7.572;2023-04-19T03:48:50;101254.19;;;13.29;53.50
45888;BME280;31595;51.418;7.572;2023-04-19T03:51:18;101247.44;;;13.30;53.46
45888;BME280;31595;51.418;7.572;2023-04-19T03:53:48;101241.31;;;13.28;52.99
45888;BME280;31595;51.418;7.572;2023-04-19T03:56:15;101240.47;;;13.28;53.57
45888;BME280;31595;51.418;7.572;2023-04-19T03:58:44;101245.66;;;13.20;53.03
45888;BME280;31595;51.418;7.572;2023-04-19T04:01:17;101243.72;;;13.21;52.84
45888;BME280;31595;51.418;7.572;2023-04-19T04:03:44;101238.41;;;13.19;52.09
45888;BME280;31595;51.418;7.572;2023-04-19T04:06:11;101234.28;;;13.17;52.49
45888;BME280;31595;51.418;7.572;2023-04-19T04:08:39;101239.03;;;13.16;52.02
45888;BME280;31595;51.418;7.572;2023-04-19T04:11:06;101234.06;;;12.99;52.79
45888;BME280;31595;51.418;7.572;2023-04-19T04:13:33;101239.88;;;13.03;52.48
45888;BME280;31595;51.418;7.572;2023-04-19T04:16:02;101244.66;;;13.03;52.23
45888;BME280;31595;51.418;7.572;2023-04-19T04:18:29;101242.81;;;12.98;51.91
45888;BME280;31595;51.418;7.572;2023-04-19T04:20:57;101253.66;;;12.99;51.40
45888;BME280;31595;51.418;7.572;2023-04-19T04:23:27;101248.47;;;12.93;51.95
45888;BME280;31595;51.418;7.572;2023-04-19T04:25:57;101262.88;;;12.86;51.46
45888;BME280;31595;51.418;7.572;2023-04-19T04:28:25;101247.25;;;12.85;51.45
45888;BME280;31595;51.418;7.572;2023-04-19T04:30:53;101246.00;;;12.77;52.28
45888;BME280;31595;51.418;7.572;2023-04-19T04:33:24;101252.41;;;12.78;51.92
45888;BME280;31595;51.418;7.572;2023-04-19T04:35:52;101258.44;;;12.71;51.65
45888;BME280;31595;51.418;7.572;2023-04-19T04:38:20;101257.28;;;12.72;51.42
45888;BME280;31595;51.418;7.572;2023-04-19T04:40:48;101258.72;;;12.70;50.99
45888;BME280;31595;51.418;7.572;2023-04-19T04:43:18;101263.19;;;12.71;51.08
45888;BME280;31595;51.418;7.572;2023-04-19T04:45:47;101256.88;;;12.65;51.75
45888;BME280;31595;51.418;7.572;2023-04-19T04:48:14;101262.16;;;12.67;50.92
45888;BME280;31595;51.418;7.572;2023-04-19T04:50:43;101259.66;;;12.65;50.41
45888;BME280;31595;51.418;7.572;2023-04-19T04:53:10;101255.63;;;12.57;50.21
45888;BME280;31595;51.418;7.572;2023-04-19T04:55:38;101263.28;;;12.52;51.27
45888;BME280;31595;51.418;7.572;2023-04-19T04:58:05;101259.75;;;12.46;50.57
45888;BME280;31595;51.418;7.572;2023-04-19T05:00:33;101255.81;;;12.47;50.84
45888;BME280;31595;51.418;7.572;2023-04-19T05:03:00;101255.59;;;12.44;51.51
45888;BME280;31595;51.418;7.572;2023-04-19T05:05:28;101263.16;;;12.43;50.93
45888;BME280;31595;51.418;7.572;2023-04-19T05:07:57;101258.69;;;12.42;50.86
45888;BME280;31595;51.418;7.572;2023-04-19T05:10:24;101258.69;;;12.42;50.35
45888;BME280;31595;51.418;7.572;2023-04-19T05:12:51;101254.88;;;12.38;50.66
45888;BME280;31595;51.418;7.572;2023-04-19T05:15:19;101258.88;;;12.32;50.35
45888;BME280;31595;51.418;7.572;2023-04-19T05:17:46;101249.69;;;12.31;50.60
45888;BME280;31595;51.418;7.572;2023-04-19T05:20:13;101250.72;;;12.35;50.13
45888;BME280;31595;51.418;7.572;2023-04-19T05:22:40;101255.56;;;12.30;49.98
45888;BME280;31595;51.418;7.572;2023-04-19T05:25:10;101258.06;;;12.31;49.89
45888;BME280;31595;51.418;7.572;2023-04-19T05:27:37;101254.34;;;12.36;49.93
45888;BME280;31595;51.418;7.572;2023-04-19T05:30:05;101259.94;;;12.36;49.28
45888;BME280;31595;51.418;7.572;2023-04-19T05:32:33;101256.84;;;12.37;49.41
45888;BME280;31595;51.418;7.572;2023-04-19T05:35:00;101254.78;;;12.43;49.02
45888;BME280;31595;51.418;7.572;2023-04-19T05:37:27;101262.03;;;12.44;49.08
45888;BME280;31595;51.418;7.572;2023-04-19T05:39:55;101263.59;;;12.50;48.90
45888;BME280;31595;51.418;7.572;2023-04-19T05:42:24;101260.06;;;12.58;47.58
45888;BME280;31595;51.418;7.572;2023-04-19T05:44:51;101264.97;;;12.67;48.37
45888;BME280;31595;51.418;7.572;2023-04-19T05:47:18;101258.13;;;12.73;47.26
45888;BME280;31595;51.418;7.572;2023-04-19T05:49:46;101255.13;;;12.83;47.22
45888;BME280;31595;51.418;7.572;2023-04-19T05:52:13;101262.47;;;12.93;46.29
45888;BME280;31595;51.418;7.572;2023-04-19T05:54:40;101254.72;;;12.90;46.90
45888;BME280;31595;51.418;7.572;2023-04-19T05:57:09;101251.81;;;13.09;46.04
45888;BME280;31595;51.418;7.572;2023-04-19T05:59:37;101254.78;;;13.26;45.56
45888;BME280;31595;51.418;7.572;2023-04-19T06:02:05;101259.97;;;13.33;44.88
45888;BME280;31595;51.418;7.572;2023-04-19T06:04:33;101257.06;;;13.24;45.30
45888;BME280;31595;51.418;7.572;2023-04-19T06:07:00;101262.13;;;13.22;44.81
45888;BME280;31595;51.418;7.572;2023-04-19T06:09:28;101266.81;;;13.13;44.42
45888;BME280;31595;51.418;7.572;2023-04-19T06:11:55;101262.88;;;13.14;44.63
45888;BME280;31595;51.418;7.572;2023-04-19T06:14:22;101257.50;;;13.04;43.78
45888;BME280;31595;51.418;7.572;2023-04-19T06:16:51;101258.44;;;12.99;44.09
45888;BME280;31595;51.418;7.572;2023-04-19T06:19:18;101262.16;;;12.94;44.77
45888;BME280;31595;51.418;7.572;2023-04-19T06:21:46;101263.63;;;12.92;44.02
45888;BME280;31595;51.418;7.572;2023-04-19T06:24:14;101260.63;;;13.02;44.32
45888;BME280;31595;51.418;7.572;2023-04-19T06:26:41;101252.94;;;13.08;44.27
45888;BME280;31595;51.418;7.572;2023-04-19T06:29:09;101262.69;;;13.10;44.70
45888;BME280;31595;51.418;7.572;2023-04-19T06:31:36;101259.56;;;13.12;43.76
45888;BME280;31595;51.418;7.572;2023-04-19T06:34:05;101259.97;;;13.05;44.71
45888;BME280;31595;51.418;7.572;2023-04-19T06:36:32;101258.66;;;13.03;44.14
45888;BME280;31595;51.418;7.572;2023-04-19T06:38:59;101267.13;;;12.97;43.26
45888;BME280;31595;51.418;7.572;2023-04-19T06:41:26;101266.41;;;12.92;43.19
45888;BME280;31595;51.418;7.572;2023-04-19T06:43:54;101258.13;;;13.00;43.36
45888;BME280;31595;51.418;7.572;2023-04-19T06:46:21;101267.84;;;13.17;43.00
45888;BME280;31595;51.418;7.572;2023-04-19T06:48:48;101267.25;;;13.34;41.87
45888;BME280;31595;51.418;7.572;2023-04-19T06:51:17;101267.84;;;13.31;41.83
45888;BME280;31595;51.418;7.572;2023-04-19T06:53:44;101256.94;;;13.43;41.09
45888;BME280;31595;51.418;7.572;2023-04-19T06:56:12;101262.53;;;13.43;41.17
45888;BME280;31595;51.418;7.572;2023-04-19T06:58:39;101276.16;;;13.36;41.31
45888;BME280;31595;51.418;7.572;2023-04-19T07:01:07;101267.72;;;13.50;40.96
45888;BME280;31595;51.418;7.572;2023-04-19T07:03:34;101268.72;;;13.54;39.90
45888;BME280;31595;51.418;7.572;2023-04-19T07:06:01;101276.09;;;13.50;40.01
45888;BME280;31595;51.418;7.572;2023-04-19T07:08:30;101269.06;;;13.52;40.66
45888;BME280;31595;51.418;7.572;2023-04-19T07:10:57;101266.44;;;13.56;40.21
45888;BME280;31595;51.418;7.572;2023-04-19T07:13:24;101263.47;;;13.52;39.39
45888;BME280;31595;51.418;7.572;2023-04-19T07:15:52;101267.59;;;13.55;40.21
45888;BME280;31595;51.418;7.572;2023-04-19T07:18:19;101267.38;;;13.65;40.03
45888;BME280;31595;51.418;7.572;2023-04-19T07:20:46;101259.25;;;13.77;39.99
45888;BME280;31595;51.418;7.572;2023-04-19T07:23:14;101255.91;;;13.98;39.68
45888;BME280;31595;51.418;7.572;2023-04-19T07:25:43;101259.31;;;14.40;37.72
45888;BME280;31595;51.418;7.572;2023-04-19T07:28:11;101266.97;;;15.37;36.67
45888;BME280;31595;51.418;7.572;2023-04-19T07:30:38;101248.97;;;16.25;34.81
45888;BME280;31595;51.418;7.572;2023-04-19T07:33:06;101253.72;;;17.28;33.15
45888;BME280;31595;51.418;7.572;2023-04-19T07:35:34;101248.94;;;18.24;32.13
45888;BME280;31595;51.418;7.572;2023-04-19T07:38:01;101251.22;;;19.38;30.13
45888;BME280;31595;51.418;7.572;2023-04-19T07:40:28;101244.38;;;20.20;29.05
45888;BME280;31595;51.418;7.572;2023-04-19T07:42:57;101239.44;;;21.28;28.22
45888;BME280;31595;51.418;7.572;2023-04-19T07:45:25;101235.81;;;22.22;26.69
45888;BME280;31595;51.418;7.572;2023-04-19T07:47:52;101240.66;;;23.10;25.03
45888;BME280;31595;51.418;7.572;2023-04-19T07:50:19;101252.72;;;23.83;24.18
45888;BME280;31595;51.418;7.572;2023-04-19T07:52:47;101249.56;;;24.26;23.93
45888;BME280;31595;51.418;7.572;2023-04-19T07:55:14;101246.31;;;24.61;22.70
45888;BME280;31595;51.418;7.572;2023-04-19T07:57:41;101245.81;;;25.00;22.74
45888;BME280;31595;51.418;7.572;2023-04-19T08:00:15;101237.47;;;25.25;22.61
45888;BME280;31595;51.418;7.572;2023-04-19T08:02:42;101242.97;;;25.59;21.82
45888;BME280;31595;51.418;7.572;2023-04-19T08:05:10;101246.94;;;26.17;21.91
45888;BME280;31595;51.418;7.572;2023-04-19T08:07:38;101244.63;;;26.95;20.94
45888;BME280;31595;51.418;7.572;2023-04-19T08:10:07;101245.38;;;27.60;19.99
45888;BME280;31595;51.418;7.572;2023-04-19T08:12:34;101248.50;;;28.05;19.11
45888;BME280;31595;51.418;7.572;2023-04-19T08:15:02;101248.66;;;28.46;18.81
45888;BME280;31595;51.418;7.572;2023-04-19T08:17:31;101246.53;;;28.61;18.75
45888;BME280;31595;51.418;7.572;2023-04-19T08:19:58;101232.53;;;28.74;18.23
45888;BME280;31595;51.418;7.572;2023-04-19T08:22:26;101247.25;;;29.25;18.56
45888;BME280;31595;51.418;7.572;2023-04-19T08:24:53;101227.34;;;29.03;18.26
45888;BME280;31595;51.418;7.572;2023-04-19T08:27:20;101224.94;;;29.81;17.06
45888;BME280;31595;51.418;7.572;2023-04-19T08:29:48;101235.06;;;30.51;17.13
45888;BME280;31595;51.418;7.572;2023-04-19T08:32:15;101233.38;;;30.81;17.13
45888;BME280;31595;51.418;7.572;2023-04-19T08:34:43;101246.44;;;30.85;16.94
45888;BME280;31595;51.418;7.572;2023-04-19T08:37:11;101234.56;;;30.29;16.48
45888;BME280;31595;51.418;7.572;2023-04-19T08:39:38;101234.56;;;30.29;16.78
45888;BME280;31595;51.418;7.572;2023-04-19T08:42:07;101232.84;;;30.62;16.73
45888;BME280;31595;51.418;7.572;2023-04-19T08:44:35;101236.31;;;30.77;15.03
45888;BME280;31595;51.418;7.572;2023-04-19T08:47:04;101229.41;;;30.13;15.72
45888;BME280;31595;51.418;7.572;2023-04-19T08:49:34;101227.22;;;29.93;15.75
45888;BME280;31595;51.418;7.572;2023-04-19T08:52:09;101219.31;;;30.32;16.41
45888;BME280;31595;51.418;7.572;2023-04-19T08:54:38;101222.84;;;31.41;15.05
45888;BME280;31595;51.418;7.572;2023-04-19T08:57:07;101210.03;;;31.66;14.80
45888;BME280;31595;51.418;7.572;2023-04-19T08:59:35;101215.63;;;31.93;14.34
45888;BME280;31595;51.418;7.572;2023-04-19T09:02:02;101204.06;;;32.33;13.85
45888;BME280;31595;51.418;7.572;2023-04-19T09:04:29;101217.56;;;32.00;14.17
45888;BME280;31595;51.418;7.572;2023-04-19T09:06:59;101206.72;;;33.39;13.81
45888;BME280;31595;51.418;7.572;2023-04-19T09:09:30;101198.44;;;34.76;12.89
45888;BME280;31595;51.418;7.572;2023-04-19T09:11:58;101203.56;;;35.20;13.07
45888;BME280;31595;51.418;7.572;2023-04-19T09:14:26;101192.41;;;35.31;12.64
45888;BME280;31595;51.418;7.572;2023-04-19T09:17:10;101194.25;;;35.60;12.49
45888;BME280;31595;51.418;7.572;2023-04-19T09:19:44;101195.81;;;36.05;12.62
45888;BME280;31595;51.418;7.572;2023-04-19T09:22:14;101186.44;;;36.63;11.84
45888;BME280;31595;51.418;7.572;2023-04-19T09:24:43;101191.38;;;36.53;11.56
45888;BME280;31595;51.418;7.572;2023-04-19T09:27:10;101182.66;;;36.44;11.63
45888;BME280;31595;51.418;7.572;2023-04-19T09:29:38;101196.84;;;36.51;10.83
45888;BME280;31595;51.418;7.572;2023-04-19T09:32:05;101182.38;;;36.61;10.99
45888;BME280;31595;51.418;7.572;2023-04-19T09:34:33;101188.66;;;37.18;10.31
45888;BME280;31595;51.418;7.572;2023-04-19T09:37:11;101191.16;;;36.97;9.90
45888;BME280;31595;51.418;7.572;2023-04-19T09:39:38;101171.94;;;36.72;9.91
45888;BME280;31595;51.418;7.572;2023-04-19T09:42:07;101185.06;;;36.46;10.71
45888;BME280;31595;51.418;7.572;2023-04-19T09:44:35;101173.28;;;36.09;10.89
45888;BME280;31595;51.418;7.572;2023-04-19T09:47:20;101174.16;;;36.59;10.30
45888;BME280;31595;51.418;7.572;2023-04-19T09:50:03;101175.41;;;36.49;10.46
45888;BME280;31595;51.418;7.572;2023-04-19T09:52:31;101185.25;;;37.20;9.65
45888;BME280;31595;51.418;7.572;2023-04-19T09:54:59;101175.72;;;37.37;9.70
45888;BME280;31595;51.418;7.572;2023-04-19T09:57:29;101175.41;;;37.35;9.59
45888;BME280;31595;51.418;7.572;2023-04-19T09:59:58;101168.91;;;38.29;9.03
45888;BME280;31595;51.418;7.572;2023-04-19T10:02:30;101154.81;;;38.37;9.25
45888;BME280;31595;51.418;7.572;2023-04-19T10:04:58;101171.28;;;38.40;9.07
45888;BME280;31595;51.418;7.572;2023-04-19T10:07:26;101164.16;;;37.98;9.77
45888;BME280;31595;51.418;7.572;2023-04-19T10:09:55;101153.66;;;38.34;9.09
45888;BME280;31595;51.418;7.572;2023-04-19T10:12:24;101159.25;;;37.44;9.28
45888;BME280;31595;51.418;7.572;2023-04-19T10:14:54;101160.53;;;37.06;9.32
45888;BME280;31595;51.418;7.572;2023-04-19T10:17:23;101170.38;;;36.09;9.19
45888;BME280;31595;51.418;7.572;2023-04-19T10:19:55;101157.63;;;35.53;10.01
45888;BME280;31595;51.418;7.572;2023-04-19T10:22:23;101166.41;;;35.05;10.79
45888;BME280;31595;51.418;7.572;2023-04-19T10:25:07;101157.38;;;35.03;10.39
45888;BME280;31595;51.418;7.572;2023-04-19T10:27:35;101151.50;;;34.33;10.77
45888;BME280;31595;51.418;7.572;2023-04-19T10:30:05;101153.66;;;35.15;10.98
45888;BME280;31595;51.418;7.572;2023-04-19T10:32:38;101154.88;;;34.80;10.78
45888;BME280;31595;51.418;7.572;2023-04-19T10:35:09;101153.28;;;35.13;10.70
45888;BME280;31595;51.418;7.572;2023-04-19T10:37:39;101135.72;;;35.74;10.78
45888;BME280;31595;51.418;7.572;2023-04-19T10:40:08;101126.50;;;35.44;10.20
45888;BME280;31595;51.418;7.572;2023-04-19T10:43:14;101137.75;;;36.67;10.56
45888;BME280;31595;51.418;7.572;2023-04-19T10:45:43;101135.78;;;36.64;10.85
45888;BME280;31595;51.418;7.572;2023-04-19T10:48:35;101123.63;;;38.28;9.78
45888;BME280;31595;51.418;7.572;2023-04-19T10:51:10;101126.91;;;39.03;9.04
45888;BME280;31595;51.418;7.572;2023-04-19T10:53:43;101128.69;;;40.13;8.39
45888;BME280;31595;51.418;7.572;2023-04-19T10:56:11;101130.78;;;41.04;8.62
45888;BME280;31595;51.418;7.572;2023-04-19T10:59:13;101122.28;;;40.45;8.14
45888;BME280;31595;51.418;7.572;2023-04-19T11:01:53;101106.41;;;40.31;8.22
45888;BME280;31595;51.418;7.572;2023-04-19T11:04:23;101099.63;;;41.22;8.24
45888;BME280;31595;51.418;7.572;2023-04-19T11:06:57;101102.94;;;42.25;7.83
45888;BME280;31595;51.418;7.572;2023-04-19T11:09:28;101090.56;;;41.72;7.71
45888;BME280;31595;51.418;7.572;2023-04-19T11:11:58;101086.44;;;42.76;7.58
45888;BME280;31595;51.418;7.572;2023-04-19T11:14:27;101085.59;;;43.41;7.49
45888;BME280;31595;51.418;7.572;2023-04-19T11:16:57;101084.50;;;43.27;7.13
45888;BME280;31595;51.418;7.572;2023-04-19T11:19:24;101080.81;;;43.49;7.26
45888;BME280;31595;51.418;7.572;2023-04-19T11:21:56;101074.53;;;42.96;6.86
45888;BME280;31595;51.418;7.572;2023-04-19T11:24:24;101071.09;;;42.98;7.25
45888;BME280;31595;51.418;7.572;2023-04-19T11:26:52;101070.38;;;43.76;6.69
45888;BME280;31595;51.418;7.572;2023-04-19T11:29:21;101069.88;;;43.72;7.39
45888;BME280;31595;51.418;7.572;2023-04-19T11:31:49;101070.66;;;43.84;7.13
45888;BME280;31595;51.418;7.572;2023-04-19T11:34:21;101054.03;;;44.26;6.63
45888;BME280;31595;51.418;7.572;2023-04-19T11:36:49;101052.75;;;44.16;6.58
45888;BME280;31595;51.418;7.572;2023-04-19T11:39:17;101044.50;;;44.14;6.73
45888;BME280;31595;51.418;7.572;2023-04-19T11:41:44;101046.44;;;42.67;7.38
45888;BME280;31595;51.418;7.572;2023-04-19T11:44:13;101040.44;;;43.05;6.48
45888;BME280;31595;51.418;7.572;2023-04-19T11:46:41;101039.66;;;43.21;7.07
45888;BME280;31595;51.418;7.572;2023-04-19T11:49:08;101033.88;;;43.49;7.08
45888;BME280;31595;51.418;7.572;2023-04-19T11:51:42;101028.75;;;44.06;6.75
45888;BME280;31595;51.418;7.572;2023-04-19T11:54:12;101027.84;;;44.40;6.50
45888;BME280;31595;51.418;7.572;2023-04-19T11:56:59;101029.16;;;44.44;6.71
45888;BME280;31595;51.418;7.572;2023-04-19T11:59:27;101010.16;;;44.56;6.13
45888;BME280;31595;51.418;7.572;2023-04-19T12:01:54;101021.56;;;43.56;6.35
45888;BME280;31595;51.418;7.572;2023-04-19T12:04:22;101011.97;;;43.84;6.97
45888;BME280;31595;51.418;7.572;2023-04-19T12:06:57;101017.22;;;44.25;6.44
45888;BME280;31595;51.418;7.572;2023-04-19T12:09:25;101025.31;;;43.74;7.07
45888;BME280;31595;51.418;7.572;2023-04-19T12:11:52;101016.78;;;43.87;7.00
45888;BME280;31595;51.418;7.572;2023-04-19T12:14:22;101011.66;;;43.99;6.76
45888;BME280;31595;51.418;7.572;2023-04-19T12:17:11;101003.66;;;44.05;6.75
45888;BME280;31595;51.418;7.572;2023-04-19T12:19:43;101015.44;;;43.54;6.57
45888;BME280;31595;51.418;7.572;2023-04-19T12:22:13;101012.88;;;42.57;7.91
45888;BME280;31595;51.418;7.572;2023-04-19T12:24:42;101011.03;;;42.65;7.08
45888;BME280;31595;51.418;7.572;2023-04-19T12:27:09;101010.22;;;42.65;7.53
45888;BME280;31595;51.418;7.572;2023-04-19T12:29:37;101004.94;;;42.74;7.46
45888;BME280;31595;51.418;7.572;2023-04-19T12:32:05;100993.97;;;42.04;7.29
45888;BME280;31595;51.418;7.572;2023-04-19T12:34:32;100993.94;;;42.47;7.75
45888;BME280;31595;51.418;7.572;2023-04-19T12:37:00;100990.47;;;42.54;7.17
45888;BME280;31595;51.418;7.572;2023-04-19T12:39:30;100989.84;;;40.68;8.15
45888;BME280;31595;51.418;7.572;2023-04-19T12:41:57;100988.25;;;40.47;8.34
45888;BME280;31595;51.418;7.572;2023-04-19T12:44:25;100992.91;;;41.06;8.31
45888;BME280;31595;51.418;7.572;2023-04-19T12:46:53;100990.19;;;41.28;7.73
45888;BME280;31595;51.418;7.572;2023-04-19T12:49:22;100979.81;;;41.01;7.32
45888;BME280;31595;51.418;7.572;2023-04-19T12:51:50;100981.00;;;39.66;7.88
45888;BME280;31595;51.418;7.572;2023-04-19T12:54:17;100990.50;;;38.62;8.08
45888;BME280;31595;51.418;7.572;2023-04-19T12:56:46;100979.25;;;38.55;8.30
45888;BME280;31595;51.418;7.572;2023-04-19T12:59:13;100974.91;;;38.02;8.46
45888;BME280;31595;51.418;7.572;2023-04-19T13:01:41;100969.50;;;37.62;8.74